sensor_id;sensor_type;location;lat;lon;timestamp;P1;durP1;ratioP1;P2;durP2;ratioP2
51485;SDS011;37565;51.352;6.412;2022-07-29T00:02:25;4.15;;;0.90;;
51485;SDS011;37565;51.352;6.412;2022-07-29T00:04:54;3.75;;;1.25;;
51485;SDS011;37565;51.352;6.412;2022-07-29T00:07:22;1.88;;;0.80;;
51485;SDS011;37565;51.352;6.412;2022-07-29T00:09:51;1.50;;;0.80;;
51485;SDS011;37565;51.352;6.412;2022-07-29T00:12:19;2.47;;;0.80;;
51485;SDS011;37565;51.352;6.412;2022-07-29T00:14:52;1.90;;;0.95;;
51485;SDS011;37565;51.352;6.412;2022-07-29T00:17:20;3.38;;;0.80;;
51485;SDS011;37565;51.352;6.412;2022-07-29T00:19:48;1.58;;;1.13;;
51485;SDS011;37565;51.352;6.412;2022-07-29T00:22:18;3.17;;;1.10;;
51485;SDS011;37565;51.352;6.412;2022-07-29T00:24:46;1.95;;;0.95;;
51485;SDS011;37565;51.352;6.412;2022-07-29T00:27:15;1.60;;;1.00;;
51485;SDS011;37565;51.352;6.412;2022-07-29T00:29:44;1.20;;;1.10;;
51485;SDS011;37565;51.352;6.412;2022-07-29T00:32:12;2.53;;;1.10;;
51485;SDS011;37565;51.352;6.412;2022-07-29T00:34:40;0.93;;;0.80;;
51485;SDS011;37565;51.352;6.412;2022-07-29T00:37:27;2.13;;;1.00;;
51485;SDS011;37565;51.352;6.412;2022-07-29T00:39:55;1.40;;;0.68;;
51485;SDS011;37565;51.352;6.412;2022-07-29T00:42:23;1.50;;;0.65;;
51485;SDS011;37565;51.352;6.412;2022-07-29T00:44:52;1.30;;;0.82;;
51485;SDS011;37565;51.352;6.412;2022-07-29T00:47:20;2.42;;;0.75;;
51485;SDS011;37565;51.352;6.412;2022-07-29T00:49:48;1.27;;;0.85;;
51485;SDS011;37565;51.352;6.412;2022-07-29T00:52:16;1.48;;;0.70;;
51485;SDS011;37565;51.352;6.412;2022-07-29T00:54:45;1.48;;;0.95;;
51485;SDS011;37565;51.352;6.412;2022-07-29T00:57:13;1.77;;;0.73;;
51485;SDS011;37565;51.352;6.412;2022-07-29T00:59:41;1.55;;;0.98;;
51485;SDS011;37565;51.352;6.412;2022-07-29T01:02:09;1.45;;;0.80;;
51485;SDS011;37565;51.352;6.412;2022-07-29T01:04:38;1.52;;;0.98;;
51485;SDS011;37565;51.352;6.412;2022-07-29T01:07:07;1.25;;;0.90;;
51485;SDS011;37565;51.352;6.412;2022-07-29T01:09:35;1.17;;;0.98;;
51485;SDS011;37565;51.352;6.412;2022-07-29T01:12:15;2.80;;;0.90;;
51485;SDS011;37565;51.352;6.412;2022-07-29T01:14:45;2.00;;;0.73;;
51485;SDS011;37565;51.352;6.412;2022-07-29T01:17:16;1.63;;;0.95;;
51485;SDS011;37565;51.352;6.412;2022-07-29T01:19:49;1.60;;;0.90;;
51485;SDS011;37565;51.352;6.412;2022-07-29T01:22:25;1.25;;;0.77;;
51485;SDS011;37565;51.352;6.412;2022-07-29T01:25:06;3.42;;;1.58;;
51485;SDS011;37565;51.352;6.412;2022-07-29T01:27:51;3.20;;;0.75;;
51485;SDS011;37565;51.352;6.412;2022-07-29T01:30:29;2.25;;;0.80;;
51485;SDS011;37565;51.352;6.412;2022-07-29T01:33:00;0.77;;;0.57;;
51485;SDS011;37565;51.352;6.412;2022-07-29T01:35:33;1.33;;;1.00;;
51485;SDS011;37565;51.352;6.412;2022-07-29T01:38:05;1.08;;;0.77;;
51485;SDS011;37565;51.352;6.412;2022-07-29T01:40:38;1.17;;;0.70;;
51485;SDS011;37565;51.352;6.412;2022-07-29T01:43:13;1.63;;;0.90;;
51485;SDS011;37565;51.352;6.412;2022-07-29T01:45:45;2.30;;;0.70;;
51485;SDS011;37565;51.352;6.412;2022-07-29T01:48:17;2.42;;;1.00;;
51485;SDS011;37565;51.352;6.412;2022-07-29T01:50:49;1.40;;;0.70;;
51485;SDS011;37565;51.352;6.412;2022-07-29T01:53:21;1.90;;;0.77;;
51485;SDS011;37565;51.352;6.412;2022-07-29T01:56:03;3.08;;;0.98;;
51485;SDS011;37565;51.352;6.412;2022-07-29T01:58:33;1.20;;;0.63;;
51485;SDS011;37565;51.352;6.412;2022-07-29T02:01:07;1.27;;;0.80;;
51485;SDS011;37565;51.352;6.412;2022-07-29T02:03:37;4.57;;;1.08;;
51485;SDS011;37565;51.352;6.412;2022-07-29T02:06:06;0.68;;;0.60;;
51485;SDS011;37565;51.352;6.412;2022-07-29T02:08:36;1.08;;;0.70;;
51485;SDS011;37565;51.352;6.412;2022-07-29T02:11:06;0.82;;;0.60;;
51485;SDS011;37565;51.352;6.412;2022-07-29T02:13:35;2.05;;;0.98;;
51485;SDS011;37565;51.352;6.412;2022-07-29T02:16:06;1.35;;;0.68;;
51485;SDS011;37565;51.352;6.412;2022-07-29T02:18:36;1.55;;;0.65;;
51485;SDS011;37565;51.352;6.412;2022-07-29T02:21:08;2.75;;;0.82;;
51485;SDS011;37565;51.352;6.412;2022-07-29T02:23:41;1.10;;;0.63;;
51485;SDS011;37565;51.352;6.412;2022-07-29T02:26:17;2.45;;;0.60;;
51485;SDS011;37565;51.352;6.412;2022-07-29T02:28:46;1.48;;;0.70;;
51485;SDS011;37565;51.352;6.412;2022-07-29T02:31:18;0.95;;;0.68;;
51485;SDS011;37565;51.352;6.412;2022-07-29T02:33:49;1.92;;;0.93;;
51485;SDS011;37565;51.352;6.412;2022-07-29T02:36:18;1.40;;;0.45;;
51485;SDS011;37565;51.352;6.412;2022-07-29T02:38:49;1.55;;;1.00;;
51485;SDS011;37565;51.352;6.412;2022-07-29T02:41:20;0.88;;;0.60;;
51485;SDS011;37565;51.352;6.412;2022-07-29T02:43:54;1.52;;;0.57;;
51485;SDS011;37565;51.352;6.412;2022-07-29T02:46:28;2.05;;;0.55;;
51485;SDS011;37565;51.352;6.412;2022-07-29T02:48:59;1.35;;;0.93;;
51485;SDS011;37565;51.352;6.412;2022-07-29T02:51:42;1.55;;;0.68;;
51485;SDS011;37565;51.352;6.412;2022-07-29T02:54:17;2.45;;;0.88;;
51485;SDS011;37565;51.352;6.412;2022-07-29T02:56:49;1.58;;;0.70;;
51485;SDS011;37565;51.352;6.412;2022-07-29T02:59:22;1.40;;;0.60;;
51485;SDS011;37565;51.352;6.412;2022-07-29T03:01:55;3.75;;;0.65;;
51485;SDS011;37565;51.352;6.412;2022-07-29T03:04:26;2.55;;;0.60;;
51485;SDS011;37565;51.352;6.412;2022-07-29T03:09:26;1.88;;;0.70;;
51485;SDS011;37565;51.352;6.412;2022-07-29T03:11:55;0.93;;;0.60;;
51485;SDS011;37565;51.352;6.412;2022-07-29T03:14:24;1.25;;;0.75;;
51485;SDS011;37565;51.352;6.412;2022-07-29T03:16:53;1.30;;;0.88;;
51485;SDS011;37565;51.352;6.412;2022-07-29T03:19:23;2.17;;;0.95;;
51485;SDS011;37565;51.352;6.412;2022-07-29T03:21:51;1.33;;;0.63;;
51485;SDS011;37565;51.352;6.412;2022-07-29T03:24:25;0.95;;;0.40;;
51485;SDS011;37565;51.352;6.412;2022-07-29T03:26:58;1.40;;;0.60;;
51485;SDS011;37565;51.352;6.412;2022-07-29T03:29:26;1.17;;;0.45;;
51485;SDS011;37565;51.352;6.412;2022-07-29T03:32:01;0.75;;;0.60;;
51485;SDS011;37565;51.352;6.412;2022-07-29T03:34:34;1.80;;;0.60;;
51485;SDS011;37565;51.352;6.412;2022-07-29T03:37:03;2.22;;;0.75;;
51485;SDS011;37565;51.352;6.412;2022-07-29T03:39:34;0.80;;;0.57;;
51485;SDS011;37565;51.352;6.412;2022-07-29T03:42:06;2.87;;;0.70;;
51485;SDS011;37565;51.352;6.412;2022-07-29T03:44:37;1.90;;;0.90;;
51485;SDS011;37565;51.352;6.412;2022-07-29T03:47:09;0.77;;;0.50;;
51485;SDS011;37565;51.352;6.412;2022-07-29T03:49:39;1.65;;;0.70;;
51485;SDS011;37565;51.352;6.412;2022-07-29T03:52:09;0.80;;;0.55;;
51485;SDS011;37565;51.352;6.412;2022-07-29T03:54:37;0.47;;;0.47;;
51485;SDS011;37565;51.352;6.412;2022-07-29T03:57:06;1.67;;;0.75;;
51485;SDS011;37565;51.352;6.412;2022-07-29T03:59:37;2.92;;;0.68;;
51485;SDS011;37565;51.352;6.412;2022-07-29T04:02:09;1.50;;;0.60;;
51485;SDS011;37565;51.352;6.412;2022-07-29T04:04:41;1.25;;;0.57;;
51485;SDS011;37565;51.352;6.412;2022-07-29T04:07:11;1.38;;;0.50;;
51485;SDS011;37565;51.352;6.412;2022-07-29T04:09:40;1.08;;;0.63;;
51485;SDS011;37565;51.352;6.412;2022-07-29T04:12:08;0.70;;;0.70;;
51485;SDS011;37565;51.352;6.412;2022-07-29T04:14:37;1.98;;;0.63;;
51485;SDS011;37565;51.352;6.412;2022-07-29T04:17:05;1.13;;;0.65;;
51485;SDS011;37565;51.352;6.412;2022-07-29T04:19:35;0.93;;;0.60;;
51485;SDS011;37565;51.352;6.412;2022-07-29T04:22:03;1.48;;;0.50;;
51485;SDS011;37565;51.352;6.412;2022-07-29T04:24:31;1.00;;;0.52;;
51485;SDS011;37565;51.352;6.412;2022-07-29T04:26:59;0.80;;;0.40;;
51485;SDS011;37565;51.352;6.412;2022-07-29T04:29:27;1.30;;;0.60;;
51485;SDS011;37565;51.352;6.412;2022-07-29T04:31:55;0.80;;;0.70;;
51485;SDS011;37565;51.352;6.412;2022-07-29T04:34:23;2.55;;;0.60;;
51485;SDS011;37565;51.352;6.412;2022-07-29T04:36:54;1.67;;;0.60;;
51485;SDS011;37565;51.352;6.412;2022-07-29T04:39:23;1.58;;;0.70;;
51485;SDS011;37565;51.352;6.412;2022-07-29T04:41:54;0.50;;;0.50;;
51485;SDS011;37565;51.352;6.412;2022-07-29T04:44:24;1.45;;;0.57;;
51485;SDS011;37565;51.352;6.412;2022-07-29T04:46:54;3.10;;;0.60;;
51485;SDS011;37565;51.352;6.412;2022-07-29T04:49:23;0.70;;;0.70;;
51485;SDS011;37565;51.352;6.412;2022-07-29T04:51:51;1.85;;;0.50;;
51485;SDS011;37565;51.352;6.412;2022-07-29T04:54:21;1.50;;;0.70;;
51485;SDS011;37565;51.352;6.412;2022-07-29T04:56:50;0.60;;;0.50;;
51485;SDS011;37565;51.352;6.412;2022-07-29T04:59:19;0.60;;;0.40;;
51485;SDS011;37565;51.352;6.412;2022-07-29T05:01:47;1.73;;;0.47;;
51485;SDS011;37565;51.352;6.412;2022-07-29T05:04:15;1.25;;;0.47;;
51485;SDS011;37565;51.352;6.412;2022-07-29T05:06:44;0.82;;;0.60;;
51485;SDS011;37565;51.352;6.412;2022-07-29T05:09:12;1.55;;;0.60;;
51485;SDS011;37565;51.352;6.412;2022-07-29T05:11:42;2.42;;;0.70;;
51485;SDS011;37565;51.352;6.412;2022-07-29T05:14:10;3.22;;;0.60;;
51485;SDS011;37565;51.352;6.412;2022-07-29T05:16:38;0.82;;;0.43;;
51485;SDS011;37565;51.352;6.412;2022-07-29T05:19:06;0.50;;;0.50;;
51485;SDS011;37565;51.352;6.412;2022-07-29T05:21:39;0.60;;;0.60;;
51485;SDS011;37565;51.352;6.412;2022-07-29T05:24:07;1.08;;;0.60;;
51485;SDS011;37565;51.352;6.412;2022-07-29T05:26:35;0.70;;;0.47;;
51485;SDS011;37565;51.352;6.412;2022-07-29T05:29:05;1.13;;;0.77;;
51485;SDS011;37565;51.352;6.412;2022-07-29T05:31:53;0.82;;;0.60;;
51485;SDS011;37565;51.352;6.412;2022-07-29T05:34:21;0.60;;;0.57;;
51485;SDS011;37565;51.352;6.412;2022-07-29T05:36:49;0.75;;;0.50;;
51485;SDS011;37565;51.352;6.412;2022-07-29T05:39:17;0.63;;;0.63;;
51485;SDS011;37565;51.352;6.412;2022-07-29T05:41:46;1.23;;;0.50;;
51485;SDS011;37565;51.352;6.412;2022-07-29T05:44:18;1.60;;;0.70;;
51485;SDS011;37565;51.352;6.412;2022-07-29T05:46:50;0.60;;;0.47;;
51485;SDS011;37565;51.352;6.412;2022-07-29T05:49:18;1.33;;;0.50;;
51485;SDS011;37565;51.352;6.412;2022-07-29T05:51:52;1.80;;;0.70;;
51485;SDS011;37565;51.352;6.412;2022-07-29T05:54:20;0.95;;;0.57;;
51485;SDS011;37565;51.352;6.412;2022-07-29T05:56:48;1.50;;;0.50;;
51485;SDS011;37565;51.352;6.412;2022-07-29T05:59:16;0.50;;;0.50;;
51485;SDS011;37565;51.352;6.412;2022-07-29T06:01:46;1.55;;;0.60;;
51485;SDS011;37565;51.352;6.412;2022-07-29T06:04:14;3.13;;;0.68;;
51485;SDS011;37565;51.352;6.412;2022-07-29T06:06:42;0.50;;;0.50;;
51485;SDS011;37565;51.352;6.412;2022-07-29T06:09:10;1.38;;;0.50;;
51485;SDS011;37565;51.352;6.412;2022-07-29T06:11:40;2.25;;;0.85;;
51485;SDS011;37565;51.352;6.412;2022-07-29T06:14:08;1.05;;;0.50;;
51485;SDS011;37565;51.352;6.412;2022-07-29T06:16:36;2.70;;;0.60;;
51485;SDS011;37565;51.352;6.412;2022-07-29T06:19:05;3.13;;;0.70;;
51485;SDS011;37565;51.352;6.412;2022-07-29T06:21:34;2.70;;;0.55;;
51485;SDS011;37565;51.352;6.412;2022-07-29T06:24:07;2.20;;;0.60;;
51485;SDS011;37565;51.352;6.412;2022-07-29T06:26:35;2.45;;;0.70;;
51485;SDS011;37565;51.352;6.412;2022-07-29T06:29:05;1.63;;;0.70;;
51485;SDS011;37565;51.352;6.412;2022-07-29T06:31:33;1.02;;;0.80;;
51485;SDS011;37565;51.352;6.412;2022-07-29T06:34:01;1.05;;;0.60;;
51485;SDS011;37565;51.352;6.412;2022-07-29T06:36:33;0.60;;;0.50;;
51485;SDS011;37565;51.352;6.412;2022-07-29T06:39:03;0.93;;;0.60;;
51485;SDS011;37565;51.352;6.412;2022-07-29T06:41:33;1.02;;;0.70;;
51485;SDS011;37565;51.352;6.412;2022-07-29T06:44:01;0.60;;;0.40;;
51485;SDS011;37565;51.352;6.412;2022-07-29T06:46:30;1.08;;;0.68;;
51485;SDS011;37565;51.352;6.412;2022-07-29T06:48:59;1.48;;;0.70;;
51485;SDS011;37565;51.352;6.412;2022-07-29T06:51:28;1.17;;;0.88;;
51485;SDS011;37565;51.352;6.412;2022-07-29T06:53:58;4.38;;;0.80;;
51485;SDS011;37565;51.352;6.412;2022-07-29T06:56:29;1.38;;;0.70;;
51485;SDS011;37565;51.352;6.412;2022-07-29T06:59:04;1.05;;;0.60;;
51485;SDS011;37565;51.352;6.412;2022-07-29T07:01:32;1.50;;;0.80;;
51485;SDS011;37565;51.352;6.412;2022-07-29T07:04:00;2.67;;;0.60;;
51485;SDS011;37565;51.352;6.412;2022-07-29T07:06:28;2.53;;;1.00;;
51485;SDS011;37565;51.352;6.412;2022-07-29T07:08:58;4.25;;;1.48;;
51485;SDS011;37565;51.352;6.412;2022-07-29T07:11:26;4.20;;;1.67;;
51485;SDS011;37565;51.352;6.412;2022-07-29T07:13:54;4.43;;;1.80;;
51485;SDS011;37565;51.352;6.412;2022-07-29T07:16:28;3.15;;;1.88;;
51485;SDS011;37565;51.352;6.412;2022-07-29T07:18:57;3.90;;;1.65;;
51485;SDS011;37565;51.352;6.412;2022-07-29T07:21:25;2.42;;;1.70;;
51485;SDS011;37565;51.352;6.412;2022-07-29T07:23:58;5.63;;;2.00;;
51485;SDS011;37565;51.352;6.412;2022-07-29T07:26:27;6.82;;;1.80;;
51485;SDS011;37565;51.352;6.412;2022-07-29T07:28:55;5.18;;;1.50;;
51485;SDS011;37565;51.352;6.412;2022-07-29T07:31:23;3.28;;;1.52;;
51485;SDS011;37565;51.352;6.412;2022-07-29T07:33:52;8.43;;;2.58;;
51485;SDS011;37565;51.352;6.412;2022-07-29T07:36:20;5.55;;;1.45;;
51485;SDS011;37565;51.352;6.412;2022-07-29T07:38:49;3.97;;;1.60;;
51485;SDS011;37565;51.352;6.412;2022-07-29T07:41:18;5.28;;;1.42;;
51485;SDS011;37565;51.352;6.412;2022-07-29T07:43:46;6.80;;;1.30;;
51485;SDS011;37565;51.352;6.412;2022-07-29T07:46:14;3.38;;;1.13;;
51485;SDS011;37565;51.352;6.412;2022-07-29T07:48:43;1.77;;;1.00;;
51485;SDS011;37565;51.352;6.412;2022-07-29T07:51:11;4.30;;;1.30;;
51485;SDS011;37565;51.352;6.412;2022-07-29T07:53:39;4.60;;;1.20;;
51485;SDS011;37565;51.352;6.412;2022-07-29T07:56:07;1.80;;;1.00;;
51485;SDS011;37565;51.352;6.412;2022-07-29T07:58:39;1.02;;;0.90;;
51485;SDS011;37565;51.352;6.412;2022-07-29T08:01:07;3.88;;;1.60;;
51485;SDS011;37565;51.352;6.412;2022-07-29T08:03:36;3.65;;;1.13;;
51485;SDS011;37565;51.352;6.412;2022-07-29T08:06:05;4.28;;;1.85;;
51485;SDS011;37565;51.352;6.412;2022-07-29T08:08:33;8.68;;;2.13;;
51485;SDS011;37565;51.352;6.412;2022-07-29T08:11:01;3.33;;;1.10;;
51485;SDS011;37565;51.352;6.412;2022-07-29T08:13:35;2.88;;;1.10;;
51485;SDS011;37565;51.352;6.412;2022-07-29T08:16:05;2.05;;;1.17;;
51485;SDS011;37565;51.352;6.412;2022-07-29T08:18:42;1.73;;;1.10;;
51485;SDS011;37565;51.352;6.412;2022-07-29T08:21:11;4.32;;;1.85;;
51485;SDS011;37565;51.352;6.412;2022-07-29T08:23:40;3.40;;;1.48;;
51485;SDS011;37565;51.352;6.412;2022-07-29T08:26:23;3.17;;;1.13;;
51485;SDS011;37565;51.352;6.412;2022-07-29T08:28:51;3.15;;;1.10;;
51485;SDS011;37565;51.352;6.412;2022-07-29T08:31:20;2.22;;;1.00;;
51485;SDS011;37565;51.352;6.412;2022-07-29T08:33:48;2.50;;;1.00;;
51485;SDS011;37565;51.352;6.412;2022-07-29T08:36:16;1.67;;;1.10;;
51485;SDS011;37565;51.352;6.412;2022-07-29T08:38:47;2.83;;;1.10;;
51485;SDS011;37565;51.352;6.412;2022-07-29T08:41:15;1.92;;;1.05;;
51485;SDS011;37565;51.352;6.412;2022-07-29T08:43:45;7.05;;;1.20;;
51485;SDS011;37565;51.352;6.412;2022-07-29T08:46:13;3.30;;;1.50;;
51485;SDS011;37565;51.352;6.412;2022-07-29T08:48:44;1.05;;;0.95;;
51485;SDS011;37565;51.352;6.412;2022-07-29T08:51:13;1.75;;;0.95;;
51485;SDS011;37565;51.352;6.412;2022-07-29T08:53:43;2.30;;;1.10;;
51485;SDS011;37565;51.352;6.412;2022-07-29T08:56:13;2.50;;;1.00;;
51485;SDS011;37565;51.352;6.412;2022-07-29T08:58:43;1.65;;;1.00;;
51485;SDS011;37565;51.352;6.412;2022-07-29T09:01:21;2.70;;;1.13;;
51485;SDS011;37565;51.352;6.412;2022-07-29T09:04:04;7.13;;;1.50;;
51485;SDS011;37565;51.352;6.412;2022-07-29T09:06:36;1.38;;;0.80;;
51485;SDS011;37565;51.352;6.412;2022-07-29T09:09:07;2.88;;;1.40;;
51485;SDS011;37565;51.352;6.412;2022-07-29T09:11:36;1.15;;;1.00;;
51485;SDS011;37565;51.352;6.412;2022-07-29T09:14:04;6.07;;;1.33;;
51485;SDS011;37565;51.352;6.412;2022-07-29T09:16:48;2.17;;;0.98;;
51485;SDS011;37565;51.352;6.412;2022-07-29T09:19:21;4.05;;;1.33;;
51485;SDS011;37565;51.352;6.412;2022-07-29T09:21:50;4.93;;;1.60;;
51485;SDS011;37565;51.352;6.412;2022-07-29T09:24:26;5.25;;;1.30;;
51485;SDS011;37565;51.352;6.412;2022-07-29T09:27:08;5.00;;;1.10;;
51485;SDS011;37565;51.352;6.412;2022-07-29T09:29:46;1.95;;;1.25;;
51485;SDS011;37565;51.352;6.412;2022-07-29T09:32:14;2.05;;;1.23;;
51485;SDS011;37565;51.352;6.412;2022-07-29T09:34:44;2.13;;;0.90;;
51485;SDS011;37565;51.352;6.412;2022-07-29T09:37:12;1.42;;;1.08;;
51485;SDS011;37565;51.352;6.412;2022-07-29T09:39:53;4.40;;;1.38;;
51485;SDS011;37565;51.352;6.412;2022-07-29T09:42:27;2.70;;;1.02;;
51485;SDS011;37565;51.352;6.412;2022-07-29T09:44:58;1.45;;;1.10;;
51485;SDS011;37565;51.352;6.412;2022-07-29T09:47:40;3.25;;;1.10;;
51485;SDS011;37565;51.352;6.412;2022-07-29T09:50:12;6.17;;;1.60;;
51485;SDS011;37565;51.352;6.412;2022-07-29T09:52:44;3.08;;;1.02;;
51485;SDS011;37565;51.352;6.412;2022-07-29T09:55:14;1.77;;;1.30;;
51485;SDS011;37565;51.352;6.412;2022-07-29T09:57:43;5.50;;;2.45;;
51485;SDS011;37565;51.352;6.412;2022-07-29T10:00:13;7.80;;;3.40;;
51485;SDS011;37565;51.352;6.412;2022-07-29T10:02:42;7.10;;;2.88;;
51485;SDS011;37565;51.352;6.412;2022-07-29T10:05:20;4.50;;;2.90;;
51485;SDS011;37565;51.352;6.412;2022-07-29T10:07:51;6.50;;;3.00;;
51485;SDS011;37565;51.352;6.412;2022-07-29T10:10:23;4.32;;;2.80;;
51485;SDS011;37565;51.352;6.412;2022-07-29T10:12:53;5.43;;;2.65;;
51485;SDS011;37565;51.352;6.412;2022-07-29T10:15:32;7.97;;;2.70;;
51485;SDS011;37565;51.352;6.412;2022-07-29T10:18:03;3.92;;;2.60;;
51485;SDS011;37565;51.352;6.412;2022-07-29T10:20:33;8.23;;;3.50;;
51485;SDS011;37565;51.352;6.412;2022-07-29T10:23:02;8.15;;;2.65;;
51485;SDS011;37565;51.352;6.412;2022-07-29T10:25:31;5.38;;;3.03;;
51485;SDS011;37565;51.352;6.412;2022-07-29T10:27:59;9.02;;;3.15;;
51485;SDS011;37565;51.352;6.412;2022-07-29T10:30:27;7.43;;;3.30;;
51485;SDS011;37565;51.352;6.412;2022-07-29T10:35:57;7.85;;;3.17;;
51485;SDS011;37565;51.352;6.412;2022-07-29T10:38:43;10.00;;;2.25;;
51485;SDS011;37565;51.352;6.412;2022-07-29T10:41:19;5.25;;;3.13;;
51485;SDS011;37565;51.352;6.412;2022-07-29T10:44:13;9.57;;;3.25;;
51485;SDS011;37565;51.352;6.412;2022-07-29T10:46:44;12.95;;;3.38;;
51485;SDS011;37565;51.352;6.412;2022-07-29T10:49:13;7.40;;;2.63;;
51485;SDS011;37565;51.352;6.412;2022-07-29T10:51:54;8.63;;;2.63;;
51485;SDS011;37565;51.352;6.412;2022-07-29T10:54:46;5.05;;;2.63;;
51485;SDS011;37565;51.352;6.412;2022-07-29T10:57:20;5.18;;;2.42;;
51485;SDS011;37565;51.352;6.412;2022-07-29T11:00:28;7.90;;;2.88;;
51485;SDS011;37565;51.352;6.412;2022-07-29T11:02:58;7.55;;;3.00;;
51485;SDS011;37565;51.352;6.412;2022-07-29T11:05:51;10.20;;;3.20;;
51485;SDS011;37565;51.352;6.412;2022-07-29T11:08:25;6.30;;;3.05;;
51485;SDS011;37565;51.352;6.412;2022-07-29T11:14:03;5.20;;;3.00;;
51485;SDS011;37565;51.352;6.412;2022-07-29T11:19:32;8.02;;;3.28;;
51485;SDS011;37565;51.352;6.412;2022-07-29T11:22:07;4.47;;;3.20;;
51485;SDS011;37565;51.352;6.412;2022-07-29T11:24:38;5.50;;;2.90;;
51485;SDS011;37565;51.352;6.412;2022-07-29T11:27:16;8.88;;;3.17;;
51485;SDS011;37565;51.352;6.412;2022-07-29T11:29:50;6.70;;;3.88;;
51485;SDS011;37565;51.352;6.412;2022-07-29T11:32:19;8.52;;;3.10;;
51485;SDS011;37565;51.352;6.412;2022-07-29T11:35:13;7.47;;;3.25;;
51485;SDS011;37565;51.352;6.412;2022-07-29T11:43:49;8.77;;;3.83;;
51485;SDS011;37565;51.352;6.412;2022-07-29T11:49:18;9.23;;;3.95;;
51485;SDS011;37565;51.352;6.412;2022-07-29T11:51:58;5.65;;;4.50;;
51485;SDS011;37565;51.352;6.412;2022-07-29T11:54:31;13.07;;;3.05;;
51485;SDS011;37565;51.352;6.412;2022-07-29T11:57:22;6.28;;;2.40;;
51485;SDS011;37565;51.352;6.412;2022-07-29T12:00:02;2.17;;;1.83;;
51485;SDS011;37565;51.352;6.412;2022-07-29T12:02:38;4.07;;;1.63;;
51485;SDS011;37565;51.352;6.412;2022-07-29T12:05:08;4.28;;;1.63;;
51485;SDS011;37565;51.352;6.412;2022-07-29T12:07:38;2.45;;;1.42;;
51485;SDS011;37565;51.352;6.412;2022-07-29T12:10:10;5.65;;;1.60;;
51485;SDS011;37565;51.352;6.412;2022-07-29T12:12:56;4.50;;;1.45;;
51485;SDS011;37565;51.352;6.412;2022-07-29T12:15:24;4.40;;;1.67;;
51485;SDS011;37565;51.352;6.412;2022-07-29T12:18:16;2.30;;;1.30;;
51485;SDS011;37565;51.352;6.412;2022-07-29T12:20:56;6.60;;;1.42;;
51485;SDS011;37565;51.352;6.412;2022-07-29T12:23:29;2.25;;;1.40;;
51485;SDS011;37565;51.352;6.412;2022-07-29T12:26:03;3.63;;;1.77;;
51485;SDS011;37565;51.352;6.412;2022-07-29T12:28:37;6.97;;;1.77;;
51485;SDS011;37565;51.352;6.412;2022-07-29T12:31:08;2.45;;;1.35;;
51485;SDS011;37565;51.352;6.412;2022-07-29T12:34:00;5.60;;;1.77;;
51485;SDS011;37565;51.352;6.412;2022-07-29T12:36:28;7.10;;;2.13;;
51485;SDS011;37565;51.352;6.412;2022-07-29T12:38:56;14.27;;;2.30;;
51485;SDS011;37565;51.352;6.412;2022-07-29T12:41:25;8.35;;;2.08;;
51485;SDS011;37565;51.352;6.412;2022-07-29T12:43:56;7.38;;;2.45;;
51485;SDS011;37565;51.352;6.412;2022-07-29T12:46:24;10.65;;;2.03;;
51485;SDS011;37565;51.352;6.412;2022-07-29T12:48:53;7.30;;;2.45;;
51485;SDS011;37565;51.352;6.412;2022-07-29T12:51:28;12.60;;;2.50;;
51485;SDS011;37565;51.352;6.412;2022-07-29T12:54:04;11.02;;;2.72;;
51485;SDS011;37565;51.352;6.412;2022-07-29T12:56:34;13.23;;;2.92;;
51485;SDS011;37565;51.352;6.412;2022-07-29T12:59:12;15.27;;;3.17;;
51485;SDS011;37565;51.352;6.412;2022-07-29T13:01:42;9.68;;;2.70;;
51485;SDS011;37565;51.352;6.412;2022-07-29T13:04:10;16.60;;;3.13;;
51485;SDS011;37565;51.352;6.412;2022-07-29T13:06:57;12.82;;;2.90;;
51485;SDS011;37565;51.352;6.412;2022-07-29T13:09:35;11.65;;;2.55;;
51485;SDS011;37565;51.352;6.412;2022-07-29T13:12:05;11.50;;;2.60;;
51485;SDS011;37565;51.352;6.412;2022-07-29T13:14:38;9.57;;;2.90;;
51485;SDS011;37565;51.352;6.412;2022-07-29T13:17:08;10.02;;;3.15;;
51485;SDS011;37565;51.352;6.412;2022-07-29T13:19:37;14.65;;;3.50;;
51485;SDS011;37565;51.352;6.412;2022-07-29T13:22:07;10.75;;;3.47;;
51485;SDS011;37565;51.352;6.412;2022-07-29T13:24:44;14.80;;;3.60;;
51485;SDS011;37565;51.352;6.412;2022-07-29T13:27:14;15.45;;;4.15;;
51485;SDS011;37565;51.352;6.412;2022-07-29T13:29:44;16.33;;;3.78;;
51485;SDS011;37565;51.352;6.412;2022-07-29T13:32:12;19.38;;;4.50;;
51485;SDS011;37565;51.352;6.412;2022-07-29T13:34:41;18.15;;;4.35;;
51485;SDS011;37565;51.352;6.412;2022-07-29T13:37:09;18.45;;;4.15;;
51485;SDS011;37565;51.352;6.412;2022-07-29T13:39:37;19.35;;;4.20;;
51485;SDS011;37565;51.352;6.412;2022-07-29T13:42:06;20.60;;;4.15;;
51485;SDS011;37565;51.352;6.412;2022-07-29T13:44:36;19.45;;;4.82;;
51485;SDS011;37565;51.352;6.412;2022-07-29T13:47:06;16.35;;;4.05;;
51485;SDS011;37565;51.352;6.412;2022-07-29T13:49:35;16.30;;;4.18;;
51485;SDS011;37565;51.352;6.412;2022-07-29T13:52:03;16.67;;;4.95;;
51485;SDS011;37565;51.352;6.412;2022-07-29T13:54:33;17.80;;;5.65;;
51485;SDS011;37565;51.352;6.412;2022-07-29T13:57:07;21.07;;;4.60;;
51485;SDS011;37565;51.352;6.412;2022-07-29T13:59:36;17.40;;;4.78;;
51485;SDS011;37565;51.352;6.412;2022-07-29T14:02:06;23.48;;;5.38;;
51485;SDS011;37565;51.352;6.412;2022-07-29T14:04:35;21.70;;;4.78;;
51485;SDS011;37565;51.352;6.412;2022-07-29T14:07:04;20.45;;;5.63;;
51485;SDS011;37565;51.352;6.412;2022-07-29T14:09:33;23.50;;;5.00;;
51485;SDS011;37565;51.352;6.412;2022-07-29T14:12:07;16.63;;;4.45;;
51485;SDS011;37565;51.352;6.412;2022-07-29T14:14:35;19.90;;;4.55;;
51485;SDS011;37565;51.352;6.412;2022-07-29T14:17:03;15.48;;;4.82;;
51485;SDS011;37565;51.352;6.412;2022-07-29T14:19:34;21.30;;;5.38;;
51485;SDS011;37565;51.352;6.412;2022-07-29T14:22:04;17.63;;;5.00;;
51485;SDS011;37565;51.352;6.412;2022-07-29T14:24:34;19.70;;;5.65;;
51485;SDS011;37565;51.352;6.412;2022-07-29T14:27:03;18.02;;;4.75;;
51485;SDS011;37565;51.352;6.412;2022-07-29T14:29:31;19.25;;;5.03;;
51485;SDS011;37565;51.352;6.412;2022-07-29T14:32:03;17.80;;;5.00;;
51485;SDS011;37565;51.352;6.412;2022-07-29T14:34:34;19.65;;;4.85;;
51485;SDS011;37565;51.352;6.412;2022-07-29T14:37:03;17.27;;;4.85;;
51485;SDS011;37565;51.352;6.412;2022-07-29T14:39:32;21.20;;;5.22;;
51485;SDS011;37565;51.352;6.412;2022-07-29T14:42:08;22.67;;;5.40;;
51485;SDS011;37565;51.352;6.412;2022-07-29T14:44:37;20.50;;;5.25;;
51485;SDS011;37565;51.352;6.412;2022-07-29T14:47:05;15.60;;;4.57;;
51485;SDS011;37565;51.352;6.412;2022-07-29T14:49:35;11.13;;;4.18;;
51485;SDS011;37565;51.352;6.412;2022-07-29T14:52:03;17.48;;;4.38;;
51485;SDS011;37565;51.352;6.412;2022-07-29T14:54:32;16.00;;;4.72;;
51485;SDS011;37565;51.352;6.412;2022-07-29T14:57:00;15.40;;;4.43;;
51485;SDS011;37565;51.352;6.412;2022-07-29T14:59:28;17.70;;;4.63;;
51485;SDS011;37565;51.352;6.412;2022-07-29T15:01:56;20.73;;;5.10;;
51485;SDS011;37565;51.352;6.412;2022-07-29T15:04:24;23.35;;;5.18;;
51485;SDS011;37565;51.352;6.412;2022-07-29T15:06:53;23.02;;;5.82;;
51485;SDS011;37565;51.352;6.412;2022-07-29T15:09:21;23.17;;;5.50;;
51485;SDS011;37565;51.352;6.412;2022-07-29T15:11:49;20.45;;;5.05;;
51485;SDS011;37565;51.352;6.412;2022-07-29T15:14:17;19.13;;;6.20;;
51485;SDS011;37565;51.352;6.412;2022-07-29T15:16:45;24.38;;;6.22;;
51485;SDS011;37565;51.352;6.412;2022-07-29T15:19:14;17.25;;;5.63;;
51485;SDS011;37565;51.352;6.412;2022-07-29T15:21:42;17.63;;;5.53;;
51485;SDS011;37565;51.352;6.412;2022-07-29T15:24:15;22.75;;;6.20;;
51485;SDS011;37565;51.352;6.412;2022-07-29T15:26:43;23.00;;;6.20;;
51485;SDS011;37565;51.352;6.412;2022-07-29T15:29:12;20.55;;;5.97;;
51485;SDS011;37565;51.352;6.412;2022-07-29T15:31:40;20.60;;;5.57;;